sensor_id;sensor_type;location;lat;lon;timestamp;pressure;altitude;pressure_sealevel;temperature;humidity
76694;BME280;69667;52.136;5.424;2023-06-26T00:00:02;101194.78;;;21.98;69.99
76694;BME280;69667;52.136;5.424;2023-06-26T00:02:31;101203.41;;;21.95;70.28
76694;BME280;69667;52.136;5.424;2023-06-26T00:04:59;101205.47;;;21.93;70.66
76694;BME280;69667;52.136;5.424;2023-06-26T00:07:29;101196.06;;;21.88;70.85
76694;BME280;69667;52.136;5.424;2023-06-26T00:09:57;101200.03;;;21.85;71.44
76694;BME280;69667;52.136;5.424;2023-06-26T00:12:24;101198.19;;;21.78;70.61
76694;BME280;69667;52.136;5.424;2023-06-26T00:14:52;101196.66;;;21.67;72.40
76694;BME280;69667;52.136;5.424;2023-06-26T00:17:18;101198.03;;;21.63;72.28
76694;BME280;69667;52.136;5.424;2023-06-26T00:19:45;101201.50;;;21.57;72.76
76694;BME280;69667;52.136;5.424;2023-06-26T00:22:12;101195.50;;;21.54;72.36
76694;BME280;69667;52.136;5.424;2023-06-26T00:24:39;101195.16;;;21.49;72.84
76694;BME280;69667;52.136;5.424;2023-06-26T00:27:06;101197.22;;;21.47;73.04
76694;BME280;69667;52.136;5.424;2023-06-26T00:29:33;101194.66;;;21.45;73.44
76694;BME280;69667;52.136;5.424;2023-06-26T00:31:59;101187.31;;;21.38;73.47
76694;BME280;69667;52.136;5.424;2023-06-26T00:34:26;101181.13;;;21.35;73.39
76694;BME280;69667;52.136;5.424;2023-06-26T00:36:52;101173.59;;;21.38;73.78
76694;BME280;69667;52.136;5.424;2023-06-26T00:39:19;101175.09;;;21.40;73.18
76694;BME280;69667;52.136;5.424;2023-06-26T00:41:45;101182.34;;;21.41;73.07
76694;BME280;69667;52.136;5.424;2023-06-26T00:44:12;101171.84;;;21.36;72.51
76694;BME280;69667;52.136;5.424;2023-06-26T00:46:38;101166.72;;;21.33;73.15
76694;BME280;69667;52.136;5.424;2023-06-26T00:49:05;101174.28;;;21.31;72.72
76694;BME280;69667;52.136;5.424;2023-06-26T00:51:32;101165.38;;;21.29;73.28
76694;BME280;69667;52.136;5.424;2023-06-26T00:53:59;101165.72;;;21.26;73.26
76694;BME280;69667;52.136;5.424;2023-06-26T00:56:27;101164.19;;;21.24;73.17
76694;BME280;69667;52.136;5.424;2023-06-26T00:58:54;101170.88;;;21.21;73.07
76694;BME280;69667;52.136;5.424;2023-06-26T01:01:20;101173.28;;;21.16;73.59
76694;BME280;69667;52.136;5.424;2023-06-26T01:03:48;101172.63;;;21.14;73.26
76694;BME280;69667;52.136;5.424;2023-06-26T01:06:20;101169.56;;;21.09;73.89
76694;BME280;69667;52.136;5.424;2023-06-26T01:08:48;101175.38;;;21.06;73.16
76694;BME280;69667;52.136;5.424;2023-06-26T01:11:17;101191.19;;;21.04;73.94
76694;BME280;69667;52.136;5.424;2023-06-26T01:13:45;101189.97;;;21.07;74.08
76694;BME280;69667;52.136;5.424;2023-06-26T01:16:12;101189.75;;;21.16;73.42
76694;BME280;69667;52.136;5.424;2023-06-26T01:18:41;101192.50;;;21.32;72.88
76694;BME280;69667;52.136;5.424;2023-06-26T01:21:09;101185.91;;;21.42;72.05
76694;BME280;69667;52.136;5.424;2023-06-26T01:28:42;101200.25;;;21.68;70.20
76694;BME280;69667;52.136;5.424;2023-06-26T01:31:11;101205.91;;;21.74;69.71
76694;BME280;69667;52.136;5.424;2023-06-26T01:33:38;101217.44;;;21.78;69.70
76694;BME280;69667;52.136;5.424;2023-06-26T01:36:05;101229.59;;;21.83;70.16
76694;BME280;69667;52.136;5.424;2023-06-26T01:38:34;101214.81;;;21.84;69.48
76694;BME280;69667;52.136;5.424;2023-06-26T01:41:02;101230.94;;;21.87;69.35
76694;BME280;69667;52.136;5.424;2023-06-26T01:46:27;101226.00;;;21.83;68.12
76694;BME280;69667;52.136;5.424;2023-06-26T01:52:20;101231.84;;;21.80;67.63
76694;BME280;69667;52.136;5.424;2023-06-26T01:54:58;101224.63;;;21.79;68.61
76694;BME280;69667;52.136;5.424;2023-06-26T01:57:30;101223.41;;;21.73;67.77
76694;BME280;69667;52.136;5.424;2023-06-26T01:59:58;101225.69;;;21.70;67.57
76694;BME280;69667;52.136;5.424;2023-06-26T02:02:25;101229.63;;;21.67;67.59
76694;BME280;69667;52.136;5.424;2023-06-26T02:04:54;101226.56;;;21.62;68.21
76694;BME280;69667;52.136;5.424;2023-06-26T02:07:22;101220.56;;;21.59;69.10
76694;BME280;69667;52.136;5.424;2023-06-26T02:09:49;101235.69;;;21.55;67.79
76694;BME280;69667;52.136;5.424;2023-06-26T02:12:15;101228.28;;;21.55;68.83
76694;BME280;69667;52.136;5.424;2023-06-26T02:14:43;101234.81;;;21.54;68.81
76694;BME280;69667;52.136;5.424;2023-06-26T02:17:10;101227.97;;;21.50;68.49
76694;BME280;69667;52.136;5.424;2023-06-26T02:19:36;101230.56;;;21.44;68.56
76694;BME280;69667;52.136;5.424;2023-06-26T02:22:03;101239.50;;;21.38;68.87
76694;BME280;69667;52.136;5.424;2023-06-26T02:24:30;101239.19;;;21.32;69.08
76694;BME280;69667;52.136;5.424;2023-06-26T02:26:57;101231.63;;;21.26;69.38
76694;BME280;69667;52.136;5.424;2023-06-26T02:29:24;101237.47;;;21.23;69.56
76694;BME280;69667;52.136;5.424;2023-06-26T02:31:50;101241.94;;;21.16;69.80
76694;BME280;69667;52.136;5.424;2023-06-26T02:34:17;101239.91;;;21.10;70.03
76694;BME280;69667;52.136;5.424;2023-06-26T02:36:44;101236.28;;;21.02;70.66
76694;BME280;69667;52.136;5.424;2023-06-26T02:39:10;101242.47;;;20.96;70.49
76694;BME280;69667;52.136;5.424;2023-06-26T02:41:38;101255.50;;;20.94;70.94
76694;BME280;69667;52.136;5.424;2023-06-26T02:44:04;101243.66;;;20.93;70.54
76694;BME280;69667;52.136;5.424;2023-06-26T02:46:32;101243.66;;;20.93;71.06
76694;BME280;69667;52.136;5.424;2023-06-26T02:48:59;101251.53;;;20.96;71.11
76694;BME280;69667;52.136;5.424;2023-06-26T02:51:26;101246.75;;;20.90;71.25
76694;BME280;69667;52.136;5.424;2023-06-26T02:53:54;101249.84;;;20.87;71.42
76694;BME280;69667;52.136;5.424;2023-06-26T02:56:21;101247.59;;;20.91;71.75
76694;BME280;69667;52.136;5.424;2023-06-26T02:58:47;101256.84;;;20.90;71.97
76694;BME280;69667;52.136;5.424;2023-06-26T03:01:14;101264.56;;;20.86;72.07
76694;BME280;69667;52.136;5.424;2023-06-26T03:03:43;101266.66;;;20.84;72.67
76694;BME280;69667;52.136;5.424;2023-06-26T03:06:14;101250.50;;;20.81;71.74
76694;BME280;69667;52.136;5.424;2023-06-26T03:08:42;101258.38;;;20.76;72.23
76694;BME280;69667;52.136;5.424;2023-06-26T03:11:09;101269.22;;;20.78;72.35
76694;BME280;69667;52.136;5.424;2023-06-26T03:13:37;101257.56;;;20.76;72.07
76694;BME280;69667;52.136;5.424;2023-06-26T03:16:04;101264.06;;;20.75;72.65
76694;BME280;69667;52.136;5.424;2023-06-26T03:18:31;101264.06;;;20.75;73.52
76694;BME280;69667;52.136;5.424;2023-06-26T03:20:58;101278.47;;;20.77;73.10
76694;BME280;69667;52.136;5.424;2023-06-26T03:23:26;101271.44;;;20.74;72.95
76694;BME280;69667;52.136;5.424;2023-06-26T03:25:53;101269.06;;;20.79;72.87
76694;BME280;69667;52.136;5.424;2023-06-26T03:28:24;101267.50;;;20.77;72.91
76694;BME280;69667;52.136;5.424;2023-06-26T03:30:50;101269.38;;;20.76;73.16
76694;BME280;69667;52.136;5.424;2023-06-26T03:33:17;101274.53;;;20.79;73.07
76694;BME280;69667;52.136;5.424;2023-06-26T03:35:44;101266.63;;;20.76;73.63
76694;BME280;69667;52.136;5.424;2023-06-26T03:38:13;101274.72;;;20.78;72.62
76694;BME280;69667;52.136;5.424;2023-06-26T03:40:41;101264.06;;;20.75;73.50
76694;BME280;69667;52.136;5.424;2023-06-26T03:43:07;101269.88;;;20.72;73.89
76694;BME280;69667;52.136;5.424;2023-06-26T03:45:44;101280.69;;;20.73;74.16
76694;BME280;69667;52.136;5.424;2023-06-26T03:48:10;101287.22;;;20.72;73.92
76694;BME280;69667;52.136;5.424;2023-06-26T03:50:37;101292.19;;;20.69;74.15
76694;BME280;69667;52.136;5.424;2023-06-26T03:53:04;101291.13;;;20.62;74.18
76694;BME280;69667;52.136;5.424;2023-06-26T03:55:30;101291.84;;;20.64;73.60
76694;BME280;69667;52.136;5.424;2023-06-26T03:57:57;101294.91;;;20.61;72.88
76694;BME280;69667;52.136;5.424;2023-06-26T04:00:26;101306.06;;;20.59;73.38
76694;BME280;69667;52.136;5.424;2023-06-26T04:02:53;101305.91;;;20.61;72.70
76694;BME280;69667;52.136;5.424;2023-06-26T04:05:19;101310.84;;;20.57;72.73
76694;BME280;69667;52.136;5.424;2023-06-26T04:07:49;101321.13;;;20.47;73.28
76694;BME280;69667;52.136;5.424;2023-06-26T04:10:16;101323.34;;;20.44;73.86
76694;BME280;69667;52.136;5.424;2023-06-26T04:12:43;101324.84;;;20.38;73.06
76694;BME280;69667;52.136;5.424;2023-06-26T04:15:10;101326.06;;;20.36;73.16
76694;BME280;69667;52.136;5.424;2023-06-26T04:17:37;101322.09;;;20.30;73.76
76694;BME280;69667;52.136;5.424;2023-06-26T04:20:04;101331.19;;;20.39;73.73
76694;BME280;69667;52.136;5.424;2023-06-26T04:22:34;101337.22;;;20.50;73.32
76694;BME280;69667;52.136;5.424;2023-06-26T04:25:02;101332.28;;;20.54;72.29
76694;BME280;69667;52.136;5.424;2023-06-26T04:27:29;101330.25;;;20.64;72.40
76694;BME280;69667;52.136;5.424;2023-06-26T04:29:56;101339.16;;;20.66;72.00
76694;BME280;69667;52.136;5.424;2023-06-26T04:32:23;101339.81;;;20.60;71.98
76694;BME280;69667;52.136;5.424;2023-06-26T04:34:50;101339.31;;;20.56;72.94
76694;BME280;69667;52.136;5.424;2023-06-26T04:37:16;101336.25;;;20.59;73.12
76694;BME280;69667;52.136;5.424;2023-06-26T04:39:43;101350.31;;;20.56;72.90
76694;BME280;69667;52.136;5.424;2023-06-26T04:42:10;101346.00;;;20.54;72.58
76694;BME280;69667;52.136;5.424;2023-06-26T04:44:38;101346.16;;;20.52;73.22
76694;BME280;69667;52.136;5.424;2023-06-26T04:47:07;101360.06;;;20.59;72.53
76694;BME280;69667;52.136;5.424;2023-06-26T04:49:34;101356.97;;;20.62;72.59
76694;BME280;69667;52.136;5.424;2023-06-26T04:52:04;101365.03;;;20.63;72.20
76694;BME280;69667;52.136;5.424;2023-06-26T04:54:30;101372.06;;;20.58;71.81
76694;BME280;69667;52.136;5.424;2023-06-26T04:56:57;101377.75;;;20.64;72.04
76694;BME280;69667;52.136;5.424;2023-06-26T04:59:24;101378.94;;;20.70;71.52
76694;BME280;69667;52.136;5.424;2023-06-26T05:01:50;101372.47;;;20.79;71.31
76694;BME280;69667;52.136;5.424;2023-06-26T05:04:20;101379.47;;;20.73;71.41
76694;BME280;69667;52.136;5.424;2023-06-26T05:06:46;101382.03;;;20.67;71.66
76694;BME280;69667;52.136;5.424;2023-06-26T05:09:13;101388.56;;;20.74;70.79
76694;BME280;69667;52.136;5.424;2023-06-26T05:11:40;101386.03;;;20.88;70.82
76694;BME280;69667;52.136;5.424;2023-06-26T05:14:07;101384.31;;;20.87;70.35
76694;BME280;69667;52.136;5.424;2023-06-26T05:16:33;101384.13;;;20.73;71.23
76694;BME280;69667;52.136;5.424;2023-06-26T05:19:01;101382.03;;;20.67;70.67
76694;BME280;69667;52.136;5.424;2023-06-26T05:21:28;101393.53;;;20.70;70.63
76694;BME280;69667;52.136;5.424;2023-06-26T05:23:56;101393.03;;;20.75;70.94
76694;BME280;69667;52.136;5.424;2023-06-26T05:26:24;101404.22;;;20.89;70.13
76694;BME280;69667;52.136;5.424;2023-06-26T05:28:52;101406.50;;;21.10;70.19
76694;BME280;69667;52.136;5.424;2023-06-26T05:31:19;101403.81;;;21.66;68.79
76694;BME280;69667;52.136;5.424;2023-06-26T05:33:46;101404.63;;;21.99;67.18
76694;BME280;69667;52.136;5.424;2023-06-26T05:36:16;101416.31;;;23.47;62.70
76694;BME280;69667;52.136;5.424;2023-06-26T05:38:43;101400.84;;;25.42;56.23
76694;BME280;69667;52.136;5.424;2023-06-26T05:41:10;101415.81;;;27.05;50.71
76694;BME280;69667;52.136;5.424;2023-06-26T05:43:36;101407.00;;;28.27;47.85
76694;BME280;69667;52.136;5.424;2023-06-26T05:46:03;101409.69;;;29.17;44.73
76694;BME280;69667;52.136;5.424;2023-06-26T05:48:29;101413.03;;;30.13;42.74
76694;BME280;69667;52.136;5.424;2023-06-26T05:50:56;101412.81;;;31.23;40.33
76694;BME280;69667;52.136;5.424;2023-06-26T05:53:23;101406.03;;;32.01;37.78
76694;BME280;69667;52.136;5.424;2023-06-26T05:55:50;101420.00;;;32.36;37.77
76694;BME280;69667;52.136;5.424;2023-06-26T05:58:17;101413.97;;;32.78;35.87
76694;BME280;69667;52.136;5.424;2023-06-26T06:00:45;101419.53;;;32.90;34.40
76694;BME280;69667;52.136;5.424;2023-06-26T06:03:12;101422.88;;;32.75;34.16
76694;BME280;69667;52.136;5.424;2023-06-26T06:05:39;101434.75;;;33.05;33.96
76694;BME280;69667;52.136;5.424;2023-06-26T06:08:06;101448.28;;;33.37;33.28
76694;BME280;69667;52.136;5.424;2023-06-26T06:10:32;101447.84;;;33.56;33.98
76694;BME280;69667;52.136;5.424;2023-06-26T06:12:59;101447.28;;;33.43;33.47
76694;BME280;69667;52.136;5.424;2023-06-26T06:15:26;101444.09;;;33.51;32.23
76694;BME280;69667;52.136;5.424;2023-06-26T06:17:56;101458.19;;;33.56;31.64
76694;BME280;69667;52.136;5.424;2023-06-26T06:20:23;101456.88;;;33.07;32.81
76694;BME280;69667;52.136;5.424;2023-06-26T06:22:49;101473.59;;;32.67;32.85
76694;BME280;69667;52.136;5.424;2023-06-26T06:25:19;101464.34;;;33.01;33.22
76694;BME280;69667;52.136;5.424;2023-06-26T06:27:45;101467.00;;;33.92;32.14
76694;BME280;69667;52.136;5.424;2023-06-26T06:30:12;101464.47;;;34.79;31.28
76694;BME280;69667;52.136;5.424;2023-06-26T06:32:39;101467.91;;;33.81;31.79
76694;BME280;69667;52.136;5.424;2023-06-26T06:35:06;101483.34;;;30.08;37.97
76694;BME280;69667;52.136;5.424;2023-06-26T06:37:39;101496.06;;;28.00;43.29
76694;BME280;69667;52.136;5.424;2023-06-26T06:40:06;101504.28;;;26.32;46.84
76694;BME280;69667;52.136;5.424;2023-06-26T06:42:33;101515.88;;;25.79;48.99
76694;BME280;69667;52.136;5.424;2023-06-26T06:45:02;101521.38;;;25.93;49.95
76694;BME280;69667;52.136;5.424;2023-06-26T06:47:29;101514.75;;;26.15;48.65
76694;BME280;69667;52.136;5.424;2023-06-26T06:49:55;101521.88;;;25.82;50.65
76694;BME280;69667;52.136;5.424;2023-06-26T06:52:22;101529.22;;;25.04;52.57
76694;BME280;69667;52.136;5.424;2023-06-26T06:54:56;101560.03;;;24.35;55.19
76694;BME280;69667;52.136;5.424;2023-06-26T06:57:25;101532.06;;;27.13;49.58
76694;BME280;69667;52.136;5.424;2023-06-26T06:59:51;101521.81;;;29.11;43.68
76694;BME280;69667;52.136;5.424;2023-06-26T07:02:18;101529.41;;;30.11;40.99
76694;BME280;69667;52.136;5.424;2023-06-26T07:04:45;101529.59;;;28.37;44.63
76694;BME280;69667;52.136;5.424;2023-06-26T07:07:12;101526.97;;;29.90;40.98
76694;BME280;69667;52.136;5.424;2023-06-26T07:09:40;101526.06;;;32.07;36.95
76694;BME280;69667;52.136;5.424;2023-06-26T07:12:07;101526.00;;;32.83;34.52
76694;BME280;69667;52.136;5.424;2023-06-26T07:14:33;101533.84;;;31.76;37.18
76694;BME280;69667;52.136;5.424;2023-06-26T07:17:00;101541.22;;;32.87;34.57
76694;BME280;69667;52.136;5.424;2023-06-26T07:19:26;101535.50;;;33.85;33.38
76694;BME280;69667;52.136;5.424;2023-06-26T07:21:53;101536.75;;;35.05;31.93
76694;BME280;69667;52.136;5.424;2023-06-26T07:24:20;101542.28;;;34.45;32.10
76694;BME280;69667;52.136;5.424;2023-06-26T07:26:47;101564.91;;;30.71;38.98
76694;BME280;69667;52.136;5.424;2023-06-26T07:29:16;101566.78;;;28.10;43.93
76694;BME280;69667;52.136;5.424;2023-06-26T07:31:43;101557.38;;;28.77;44.40
76694;BME280;69667;52.136;5.424;2023-06-26T07:34:12;101560.53;;;30.32;39.74
76694;BME280;69667;52.136;5.424;2023-06-26T07:36:38;101568.69;;;28.03;43.81
76694;BME280;69667;52.136;5.424;2023-06-26T07:39:05;101567.38;;;27.99;44.93
76694;BME280;69667;52.136;5.424;2023-06-26T07:41:31;101569.22;;;30.67;40.07
76694;BME280;69667;52.136;5.424;2023-06-26T07:43:58;101560.94;;;32.58;35.46
76694;BME280;69667;52.136;5.424;2023-06-26T07:46:25;101562.50;;;33.23;34.14
76694;BME280;69667;52.136;5.424;2023-06-26T07:48:52;101558.03;;;33.90;32.60
76694;BME280;69667;52.136;5.424;2023-06-26T07:51:19;101568.69;;;31.85;37.22
76694;BME280;69667;52.136;5.424;2023-06-26T07:53:46;101575.13;;;31.20;37.52
76694;BME280;69667;52.136;5.424;2023-06-26T07:56:12;101571.25;;;31.03;38.00
76694;BME280;69667;52.136;5.424;2023-06-26T07:58:39;101577.81;;;30.90;38.29
76694;BME280;69667;52.136;5.424;2023-06-26T08:01:06;101598.63;;;28.86;41.35
76694;BME280;69667;52.136;5.424;2023-06-26T08:03:32;101597.16;;;27.65;45.19
76694;BME280;69667;52.136;5.424;2023-06-26T08:06:01;101590.25;;;27.41;46.19
76694;BME280;69667;52.136;5.424;2023-06-26T08:08:27;101594.50;;;27.03;46.83
76694;BME280;69667;52.136;5.424;2023-06-26T08:10:54;101581.53;;;28.37;45.96
76694;BME280;69667;52.136;5.424;2023-06-26T08:13:21;101578.13;;;30.57;40.14
76694;BME280;69667;52.136;5.424;2023-06-26T08:15:47;101582.78;;;30.63;40.16
76694;BME280;69667;52.136;5.424;2023-06-26T08:18:14;101584.19;;;31.15;38.86
76694;BME280;69667;52.136;5.424;2023-06-26T08:20:40;101596.38;;;30.78;38.04
76694;BME280;69667;52.136;5.424;2023-06-26T08:23:07;101589.59;;;30.92;38.56
76694;BME280;69667;52.136;5.424;2023-06-26T08:25:34;101594.81;;;31.25;38.10
76694;BME280;69667;52.136;5.424;2023-06-26T08:28:01;101587.53;;;31.06;37.63
76694;BME280;69667;52.136;5.424;2023-06-26T08:30:27;101582.16;;;30.86;38.30
76694;BME280;69667;52.136;5.424;2023-06-26T08:32:57;101596.94;;;30.86;37.37
76694;BME280;69667;52.136;5.424;2023-06-26T08:35:24;101597.41;;;30.59;38.29
76694;BME280;69667;52.136;5.424;2023-06-26T08:37:51;101607.06;;;30.32;40.56
76694;BME280;69667;52.136;5.424;2023-06-26T08:40:18;101612.44;;;30.82;39.12
76694;BME280;69667;52.136;5.424;2023-06-26T08:42:47;101615.25;;;30.27;37.37
76694;BME280;69667;52.136;5.424;2023-06-26T08:45:14;101618.28;;;30.74;38.02
76694;BME280;69667;52.136;5.424;2023-06-26T08:47:41;101616.25;;;30.88;36.54
76694;BME280;69667;52.136;5.424;2023-06-26T08:50:10;101615.88;;;30.84;35.39
76694;BME280;69667;52.136;5.424;2023-06-26T08:52:56;101616.06;;;31.26;35.03
76694;BME280;69667;52.136;5.424;2023-06-26T08:55:27;101622.06;;;29.93;37.76
76694;BME280;69667;52.136;5.424;2023-06-26T08:57:55;101615.53;;;30.43;37.93
76694;BME280;69667;52.136;5.424;2023-06-26T09:00:22;101628.38;;;31.18;35.19
76694;BME280;69667;52.136;5.424;2023-06-26T09:02:49;101640.63;;;30.68;33.71
76694;BME280;69667;52.136;5.424;2023-06-26T09:05:17;101637.00;;;30.67;35.80
76694;BME280;69667;52.136;5.424;2023-06-26T09:07:44;101650.03;;;31.23;35.86
76694;BME280;69667;52.136;5.424;2023-06-26T09:10:11;101638.81;;;31.65;34.37
76694;BME280;69667;52.136;5.424;2023-06-26T09:12:38;101644.44;;;31.95;32.74
76694;BME280;69667;52.136;5.424;2023-06-26T09:15:07;101646.66;;;30.65;34.84
76694;BME280;69667;52.136;5.424;2023-06-26T09:17:39;101659.50;;;30.04;36.00
76694;BME280;69667;52.136;5.424;2023-06-26T09:20:07;101668.63;;;30.55;37.00
76694;BME280;69667;52.136;5.424;2023-06-26T09:22:40;101664.69;;;30.93;35.68
76694;BME280;69667;52.136;5.424;2023-06-26T09:25:07;101669.06;;;31.08;34.47
76694;BME280;69667;52.136;5.424;2023-06-26T09:27:35;101660.75;;;31.44;32.03
76694;BME280;69667;52.136;5.424;2023-06-26T09:30:05;101668.91;;;31.63;33.24
76694;BME280;69667;52.136;5.424;2023-06-26T09:32:36;101667.28;;;31.13;32.33
76694;BME280;69667;52.136;5.424;2023-06-26T09:35:04;101674.84;;;31.31;33.13
76694;BME280;69667;52.136;5.424;2023-06-26T09:37:30;101679.44;;;31.43;32.59
76694;BME280;69667;52.136;5.424;2023-06-26T09:39:57;101672.44;;;32.25;34.23
76694;BME280;69667;52.136;5.424;2023-06-26T09:42:24;101672.78;;;32.28;32.60
76694;BME280;69667;52.136;5.424;2023-06-26T09:44:50;101669.53;;;32.72;30.71
76694;BME280;69667;52.136;5.424;2023-06-26T09:47:19;101684.63;;;30.97;33.02
76694;BME280;69667;52.136;5.424;2023-06-26T09:49:47;101691.22;;;29.39;36.07
76694;BME280;69667;52.136;5.424;2023-06-26T09:52:15;101710.97;;;28.12;37.90
76694;BME280;69667;52.136;5.424;2023-06-26T09:54:45;101701.31;;;29.01;39.77
76694;BME280;69667;52.136;5.424;2023-06-26T09:57:15;101711.75;;;29.51;36.96
76694;BME280;69667;52.136;5.424;2023-06-26T09:59:42;101698.94;;;30.01;36.19
76694;BME280;69667;52.136;5.424;2023-06-26T10:02:09;101698.91;;;29.04;35.37
76694;BME280;69667;52.136;5.424;2023-06-26T10:04:38;101707.47;;;29.03;36.79
76694;BME280;69667;52.136;5.424;2023-06-26T10:07:06;101713.34;;;28.28;37.91
76694;BME280;69667;52.136;5.424;2023-06-26T10:09:38;101713.69;;;28.66;37.09
76694;BME280;69667;52.136;5.424;2023-06-26T10:14:41;101719.03;;;30.16;35.08
76694;BME280;69667;52.136;5.424;2023-06-26T10:17:16;101723.59;;;29.97;34.73
76694;BME280;69667;52.136;5.424;2023-06-26T10:19:45;101729.53;;;30.14;33.95
76694;BME280;69667;52.136;5.424;2023-06-26T10:22:16;101710.56;;;30.35;32.63
76694;BME280;69667;52.136;5.424;2023-06-26T10:24:45;101723.66;;;30.35;34.29
76694;BME280;69667;52.136;5.424;2023-06-26T10:27:17;101735.03;;;31.20;32.18
76694;BME280;69667;52.136;5.424;2023-06-26T10:29:48;101740.47;;;31.40;32.74
76694;BME280;69667;52.136;5.424;2023-06-26T10:32:16;101732.56;;;31.37;31.95
76694;BME280;69667;52.136;5.424;2023-06-26T10:34:44;101737.84;;;31.20;35.27
76694;BME280;69667;52.136;5.424;2023-06-26T10:37:12;101743.59;;;31.25;32.82
76694;BME280;69667;52.136;5.424;2023-06-26T10:39:50;101734.56;;;30.74;33.03
76694;BME280;69667;52.136;5.424;2023-06-26T10:42:18;101744.38;;;30.83;32.93
76694;BME280;69667;52.136;5.424;2023-06-26T10:44:47;101733.28;;;30.70;32.86
76694;BME280;69667;52.136;5.424;2023-06-26T10:47:32;101732.28;;;30.64;32.61
76694;BME280;69667;52.136;5.424;2023-06-26T10:50:23;101746.31;;;31.32;33.05
76694;BME280;69667;52.136;5.424;2023-06-26T10:55:39;101737.25;;;31.61;30.78
76694;BME280;69667;52.136;5.424;2023-06-26T11:03:46;101754.31;;;32.25;30.11
76694;BME280;69667;52.136;5.424;2023-06-26T11:06:16;101752.09;;;31.12;31.79
76694;BME280;69667;52.136;5.424;2023-06-26T11:08:48;101754.22;;;31.41;31.43
76694;BME280;69667;52.136;5.424;2023-06-26T11:11:16;101758.63;;;31.49;30.75
76694;BME280;69667;52.136;5.424;2023-06-26T11:13:45;101760.06;;;31.76;30.28
76694;BME280;69667;52.136;5.424;2023-06-26T11:16:14;101760.56;;;31.48;31.69
76694;BME280;69667;52.136;5.424;2023-06-26T11:18:41;101768.72;;;31.50;31.77
76694;BME280;69667;52.136;5.424;2023-06-26T11:21:10;101774.69;;;31.29;30.90
76694;BME280;69667;52.136;5.424;2023-06-26T11:23:41;101782.06;;;30.04;31.94
76694;BME280;69667;52.136;5.424;2023-06-26T11:26:16;101784.56;;;29.09;33.90
76694;BME280;69667;52.136;5.424;2023-06-26T11:28:52;101788.97;;;28.17;34.72
76694;BME280;69667;52.136;5.424;2023-06-26T11:33:53;101802.66;;;28.72;35.04
76694;BME280;69667;52.136;5.424;2023-06-26T11:36:23;101792.13;;;28.61;34.05
76694;BME280;69667;52.136;5.424;2023-06-26T11:41:22;101795.56;;;27.82;37.33
76694;BME280;69667;52.136;5.424;2023-06-26T11:43:49;101803.03;;;28.09;36.48
76694;BME280;69667;52.136;5.424;2023-06-26T11:46:16;101802.84;;;28.71;35.70
76694;BME280;69667;52.136;5.424;2023-06-26T11:48:44;101810.13;;;28.24;39.40
76694;BME280;69667;52.136;5.424;2023-06-26T11:51:17;101813.78;;;28.85;37.27
76694;BME280;69667;52.136;5.424;2023-06-26T11:53:45;101816.38;;;29.00;36.31
76694;BME280;69667;52.136;5.424;2023-06-26T11:56:13;101817.00;;;28.82;33.83
76694;BME280;69667;52.136;5.424;2023-06-26T11:58:59;101826.09;;;28.56;34.47
76694;BME280;69667;52.136;5.424;2023-06-26T12:01:39;101824.56;;;29.34;33.93
76694;BME280;69667;52.136;5.424;2023-06-26T12:04:08;101828.44;;;29.72;33.41
76694;BME280;69667;52.136;5.424;2023-06-26T12:06:37;101836.75;;;29.78;33.02
76694;BME280;69667;52.136;5.424;2023-06-26T12:09:07;101832.69;;;29.48;33.10
76694;BME280;69667;52.136;5.424;2023-06-26T12:11:43;101839.97;;;29.56;34.58
76694;BME280;69667;52.136;5.424;2023-06-26T12:14:11;101839.75;;;29.12;31.56
76694;BME280;69667;52.136;5.424;2023-06-26T12:16:40;101849.38;;;28.49;33.79
76694;BME280;69667;52.136;5.424;2023-06-26T12:19:08;101853.78;;;28.37;33.99
76694;BME280;69667;52.136;5.424;2023-06-26T12:24:05;101853.38;;;27.02;36.74
76694;BME280;69667;52.136;5.424;2023-06-26T12:26:33;101860.28;;;26.70;36.33
76694;BME280;69667;52.136;5.424;2023-06-26T12:29:08;101857.44;;;26.85;36.01
76694;BME280;69667;52.136;5.424;2023-06-26T12:31:35;101840.81;;;27.06;37.79
76694;BME280;69667;52.136;5.424;2023-06-26T12:34:12;101841.50;;;27.57;34.53
76694;BME280;69667;52.136;5.424;2023-06-26T12:36:44;101839.69;;;27.70;35.89
76694;BME280;69667;52.136;5.424;2023-06-26T12:39:12;101849.78;;;27.50;36.88
76694;BME280;69667;52.136;5.424;2023-06-26T12:41:51;101858.53;;;27.47;35.17
76694;BME280;69667;52.136;5.424;2023-06-26T12:44:21;101870.44;;;27.48;35.62
76694;BME280;69667;52.136;5.424;2023-06-26T12:46:49;101859.97;;;27.22;35.54
76694;BME280;69667;52.136;5.424;2023-06-26T12:49:16;101871.91;;;26.66;35.33
76694;BME280;69667;52.136;5.424;2023-06-26T12:51:57;101874.09;;;26.56;37.28
76694;BME280;69667;52.136;5.424;2023-06-26T12:54:24;101866.22;;;27.09;37.85
76694;BME280;69667;52.136;5.424;2023-06-26T12:56:52;101869.34;;;27.42;35.90
76694;BME280;69667;52.136;5.424;2023-06-26T12:59:19;101870.28;;;27.07;36.11
76694;BME280;69667;52.136;5.424;2023-06-26T13:01:45;101877.53;;;26.58;36.47
76694;BME280;69667;52.136;5.424;2023-06-26T13:04:12;101869.25;;;27.14;37.41
76694;BME280;69667;52.136;5.424;2023-06-26T13:06:39;101874.03;;;26.49;36.33
76694;BME280;69667;52.136;5.424;2023-06-26T13:09:05;101875.84;;;26.42;36.92
76694;BME280;69667;52.136;5.424;2023-06-26T13:11:33;101876.78;;;26.78;37.32
76694;BME280;69667;52.136;5.424;2023-06-26T13:14:00;101883.56;;;26.61;37.49
76694;BME280;69667;52.136;5.424;2023-06-26T13:16:37;101881.59;;;26.91;38.66
76694;BME280;69667;52.136;5.424;2023-06-26T13:19:04;101875.75;;;27.00;36.70
76694;BME280;69667;52.136;5.424;2023-06-26T13:21:31;101881.22;;;26.94;35.31
76694;BME280;69667;52.136;5.424;2023-06-26T13:23:58;101875.41;;;27.10;37.01